Time;durP1;ratioP1;P1;durP2;ratioP2;P2;SDS_P1;SDS_P2;PMS_P1;PMS_P2;Temp;Humidity;BMP_temperature;BMP_pressure;BME280_temperature;BME280_humidity;BME280_pressure;Samples;Min_cycle;Max_cycle;Signal;HPM_P1;HPM_P2
2023/04/28 00:00:30;;;;;;;9.40;5.20;;;9.40;45.60;;;;;;5038150;28;46677;-67
2023/04/28 00:02:55;;;;;;;9.40;5.33;;;9.30;45.60;;;;;;5039908;28;47065;-67
2023/04/28 00:05:21;;;;;;;9.87;5.90;;;9.30;45.80;;;;;;5036322;28;46460;-68
2023/04/28 00:07:47;;;;;;;8.80;5.17;;;9.40;45.90;;;;;;5040118;28;46423;-68
2023/04/28 00:10:13;;;;;;;9.30;5.60;;;9.40;45.80;;;;;;5039235;28;45997;-68
2023/04/28 00:12:39;;;;;;;8.43;5.60;;;9.40;45.90;;;;;;5035717;28;46499;-68
2023/04/28 00:15:05;;;;;;;7.80;4.97;;;9.40;46.00;;;;;;5039918;28;46652;-69
2023/04/28 00:17:30;;;;;;;8.57;4.93;;;9.40;46.00;;;;;;5042477;28;46462;-69
2023/04/28 00:19:56;;;;;;;6.70;5.00;;;9.40;45.90;;;;;;5038200;28;46644;-69
2023/04/28 00:22:22;;;;;;;7.27;4.73;;;9.40;45.90;;;;;;5039107;28;47076;-68
2023/04/28 00:24:47;;;;;;;7.40;4.93;;;9.40;45.90;;;;;;5038792;28;45790;-68
2023/04/28 00:27:13;;;;;;;7.30;4.80;;;9.50;46.00;;;;;;5038465;28;46327;-69
2023/04/28 00:29:39;;;;;;;7.60;4.73;;;9.50;45.90;;;;;;5039565;28;46374;-69
2023/04/28 00:32:04;;;;;;;6.93;4.47;;;9.50;45.90;;;;;;5037572;28;46381;-69
2023/04/28 00:34:36;;;;;;;7.73;4.40;;;9.50;46.00;;;;;;5036761;28;46339;-70
2023/04/28 00:37:02;;;;;;;6.63;4.33;;;9.60;46.00;;;;;;5038312;28;46391;-69
2023/04/28 00:39:28;;;;;;;9.00;4.63;;;9.60;46.00;;;;;;5038955;28;46360;-68
2023/04/28 00:41:53;;;;;;;8.07;4.50;;;9.60;45.90;;;;;;5037790;28;46360;-68
2023/04/28 00:44:19;;;;;;;9.00;5.27;;;9.60;45.90;;;;;;5038003;28;46469;-69
2023/04/28 00:46:46;;;;;;;6.97;4.43;;;9.70;46.10;;;;;;5035810;28;46384;-69
2023/04/28 00:49:13;;;;;;;6.60;4.87;;;9.70;46.00;;;;;;5038231;28;46392;-69
2023/04/28 00:51:39;;;;;;;8.50;5.43;;;9.60;46.00;;;;;;5037801;28;46500;-69
2023/04/28 00:54:05;;;;;;;6.90;4.90;;;9.60;46.20;;;;;;5037844;28;46502;-68
2023/04/28 00:56:32;;;;;;;8.63;5.00;;;9.70;46.50;;;;;;5038933;28;46469;-68
2023/04/28 00:58:58;;;;;;;8.40;4.47;;;9.70;46.30;;;;;;5036485;28;46306;-68
2023/04/28 01:01:24;;;;;;;6.90;4.97;;;9.70;46.20;;;;;;5036472;28;46298;-69
2023/04/28 01:03:51;;;;;;;8.57;5.20;;;9.80;46.10;;;;;;5036673;28;46514;-68
2023/04/28 01:06:17;;;;;;;17.23;4.57;;;9.80;46.60;;;;;;5036409;28;46368;-68
2023/04/28 01:08:47;;;;;;;6.53;4.67;;;9.80;46.00;;;;;;5037033;28;46482;-68
2023/04/28 01:11:13;;;;;;;6.93;4.67;;;9.80;46.10;;;;;;5038549;28;48095;-68
2023/04/28 01:13:39;;;;;;;6.60;4.63;;;9.90;46.30;;;;;;5037685;28;45838;-68
2023/04/28 01:16:06;;;;;;;6.77;4.30;;;9.90;46.50;;;;;;5038084;28;46315;-68
2023/04/28 01:18:32;;;;;;;5.70;4.03;;;9.90;46.60;;;;;;5034179;28;46519;-69
2023/04/28 01:20:57;;;;;;;8.67;4.27;;;9.90;46.80;;;;;;5036793;28;46087;-69
2023/04/28 01:23:23;;;;;;;9.47;4.10;;;9.90;46.60;;;;;;5036380;28;46535;-68
2023/04/28 01:25:49;;;;;;;9.97;4.30;;;10.00;45.60;;;;;;5041546;28;46396;-68
2023/04/28 01:28:15;;;;;;;6.60;3.60;;;10.10;45.50;;;;;;5039408;28;46369;-68
2023/04/28 01:30:40;;;;;;;7.40;4.00;;;10.10;45.20;;;;;;5039478;28;49051;-69
2023/04/28 01:33:06;;;;;;;6.50;4.00;;;10.10;45.30;;;;;;5041190;28;46377;-69
2023/04/28 01:35:31;;;;;;;6.10;4.17;;;10.20;45.20;;;;;;5040080;28;46296;-69
2023/04/28 01:37:57;;;;;;;5.90;4.30;;;10.20;45.00;;;;;;5040665;28;46385;-68
2023/04/28 01:40:23;;;;;;;6.87;4.83;;;10.30;45.10;;;;;;5040725;28;47202;-68
2023/04/28 01:42:49;;;;;;;7.40;4.60;;;10.30;45.20;;;;;;5039869;28;46408;-68
2023/04/28 01:45:15;;;;;;;7.83;4.60;;;10.30;45.10;;;;;;5041164;28;46624;-68
2023/04/28 01:47:41;;;;;;;9.17;4.50;;;10.30;45.00;;;;;;5041146;28;46609;-68
2023/04/28 01:50:07;;;;;;;7.37;3.83;;;10.40;45.10;;;;;;5040588;28;47023;-68
2023/04/28 01:52:32;;;;;;;5.90;4.50;;;10.40;45.20;;;;;;5038249;28;46402;-69
2023/04/28 01:54:58;;;;;;;7.53;4.57;;;10.40;45.20;;;;;;5040584;28;46465;-68
2023/04/28 01:57:24;;;;;;;5.80;4.10;;;10.40;45.40;;;;;;5039578;28;46448;-68
2023/04/28 01:59:49;;;;;;;7.97;3.40;;;10.40;45.40;;;;;;5040594;28;47027;-69
2023/04/28 02:02:15;;;;;;;5.80;3.70;;;10.40;45.30;;;;;;5039362;28;45867;-68
2023/04/28 02:04:41;;;;;;;6.80;3.63;;;10.50;45.20;;;;;;5040290;28;46346;-68
2023/04/28 02:07:06;;;;;;;5.80;3.87;;;10.50;45.20;;;;;;5040701;28;46591;-69
2023/04/28 02:09:32;;;;;;;6.50;4.20;;;10.50;45.30;;;;;;5040012;28;46392;-68
2023/04/28 02:12:01;;;;;;;5.13;3.87;;;10.40;45.50;;;;;;5039719;28;45828;-69
2023/04/28 02:14:27;;;;;;;5.80;4.10;;;10.30;45.80;;;;;;5038677;28;46417;-69
2023/04/28 02:16:52;;;;;;;4.60;3.50;;;10.40;46.10;;;;;;5038740;28;45928;-69
2023/04/28 02:19:18;;;;;;;6.10;4.13;;;10.40;46.20;;;;;;5040021;28;46379;-68
2023/04/28 02:21:44;;;;;;;6.33;3.70;;;10.40;46.10;;;;;;5039183;28;46411;-69
2023/04/28 02:24:09;;;;;;;7.13;4.50;;;10.40;46.20;;;;;;5041690;28;46422;-69
2023/04/28 02:26:35;;;;;;;9.23;3.70;;;10.40;46.20;;;;;;5036953;28;46467;-68
2023/04/28 02:29:03;;;;;;;5.10;3.67;;;10.40;46.60;;;;;;5037115;28;46373;-68
2023/04/28 02:31:28;;;;;;;4.93;3.77;;;10.40;47.00;;;;;;5038104;28;46364;-68
2023/04/28 02:33:54;;;;;;;4.57;3.30;;;10.50;47.00;;;;;;5037911;28;46414;-68
2023/04/28 02:36:20;;;;;;;4.60;3.60;;;10.50;46.80;;;;;;5040081;28;46317;-68
2023/04/28 02:38:46;;;;;;;9.77;3.73;;;10.60;46.60;;;;;;5035436;28;47677;-69
2023/04/28 02:41:13;;;;;;;8.20;4.37;;;10.70;46.50;;;;;;5035471;28;46610;-67
2023/04/28 02:43:40;;;;;;;5.57;3.23;;;10.70;46.40;;;;;;5037017;28;45950;-67
2023/04/28 02:46:06;;;;;;;9.90;3.67;;;10.70;46.30;;;;;;5040335;28;46401;-68
2023/04/28 02:48:34;;;;;;;5.50;3.57;;;10.70;46.40;;;;;;5037053;28;47931;-68
2023/04/28 02:51:00;;;;;;;4.60;3.40;;;10.70;46.60;;;;;;5039096;28;46425;-68
2023/04/28 02:53:25;;;;;;;4.43;2.90;;;10.70;46.60;;;;;;5037204;28;46012;-68
2023/04/28 02:55:51;;;;;;;7.23;4.10;;;10.70;46.80;;;;;;5038695;28;46574;-68
2023/04/28 02:58:17;;;;;;;7.63;4.33;;;10.70;46.90;;;;;;5039306;28;46358;-67
2023/04/28 03:00:43;;;;;;;6.20;3.00;;;10.70;47.30;;;;;;5038755;28;46380;-68
2023/04/28 03:03:08;;;;;;;11.93;3.83;;;10.60;47.80;;;;;;5038875;28;46057;-69
2023/04/28 03:05:34;;;;;;;15.70;8.47;;;10.50;48.40;;;;;;5037745;28;45960;-68
2023/04/28 03:08:00;;;;;;;11.43;6.60;;;10.50;48.80;;;;;;5040270;28;46918;-67
2023/04/28 03:10:26;;;;;;;8.10;4.80;;;10.50;50.20;;;;;;5040270;28;46333;-67
2023/04/28 03:12:51;;;;;;;7.57;4.70;;;10.50;49.40;;;;;;5037710;28;46334;-68
2023/04/28 03:15:17;;;;;;;9.20;4.30;;;10.60;49.30;;;;;;5039554;28;46421;-69
2023/04/28 03:17:43;;;;;;;6.60;3.53;;;10.60;48.80;;;;;;5036266;28;47175;-67
2023/04/28 03:20:09;;;;;;;7.60;3.43;;;10.70;48.60;;;;;;5040413;28;46774;-67
2023/04/28 03:22:35;;;;;;;3.90;2.83;;;10.70;48.30;;;;;;5034389;28;46425;-67
2023/04/28 03:25:01;;;;;;;4.37;2.60;;;10.80;48.40;;;;;;5040442;28;46326;-68
2023/04/28 03:27:27;;;;;;;4.27;2.90;;;10.80;48.30;;;;;;5039950;28;47410;-68
2023/04/28 03:29:53;;;;;;;6.27;2.73;;;10.90;48.40;;;;;;5039708;28;46397;-68
2023/04/28 03:32:18;;;;;;;4.20;3.10;;;10.80;48.30;;;;;;5036741;28;46291;-68
2023/04/28 03:34:44;;;;;;;3.90;2.73;;;10.90;48.60;;;;;;5040948;28;46431;-69
2023/04/28 03:37:10;;;;;;;4.90;2.87;;;10.90;48.60;;;;;;5039425;28;46525;-66
2023/04/28 03:39:35;;;;;;;5.00;3.10;;;11.00;48.30;;;;;;5038741;28;46423;-68
2023/04/28 03:42:01;;;;;;;14.53;6.20;;;11.00;48.10;;;;;;5036129;28;46715;-69
2023/04/28 03:44:26;;;;;;;6.33;4.10;;;11.00;48.20;;;;;;5038080;28;46461;-68
2023/04/28 03:46:52;;;;;;;8.53;4.73;;;11.10;48.30;;;;;;5036216;28;46356;-68
2023/04/28 03:49:18;;;;;;;17.03;8.83;;;11.00;48.60;;;;;;5039750;28;46473;-68
2023/04/28 03:51:43;;;;;;;11.53;6.43;;;10.80;49.20;;;;;;5037599;28;46381;-68
2023/04/28 03:54:09;;;;;;;6.20;3.90;;;10.70;50.00;;;;;;5040065;28;46719;-68
2023/04/28 03:56:35;;;;;;;8.83;5.27;;;10.60;50.50;;;;;;5039690;28;45997;-68
2023/04/28 03:59:00;;;;;;;17.93;8.30;;;10.60;51.00;;;;;;5038485;28;45734;-68
2023/04/28 04:01:26;;;;;;;6.70;4.40;;;10.60;51.20;;;;;;5036900;28;46585;-68
2023/04/28 04:03:52;;;;;;;10.63;5.07;;;10.60;52.10;;;;;;5038212;28;46350;-68
2023/04/28 04:06:17;;;;;;;7.13;4.37;;;10.50;52.10;;;;;;5039797;28;47063;-68
2023/04/28 04:08:44;;;;;;;6.17;3.37;;;10.50;52.10;;;;;;5039525;28;46474;-68
2023/04/28 04:11:10;;;;;;;5.43;3.70;;;10.60;51.80;;;;;;5036437;28;46418;-68
2023/04/28 04:13:35;;;;;;;5.47;3.00;;;10.60;52.00;;;;;;5037409;28;46419;-68
2023/04/28 04:16:01;;;;;;;5.00;2.80;;;10.80;51.20;;;;;;5038659;28;46687;-68
2023/04/28 04:18:27;;;;;;;7.20;3.00;;;10.80;50.60;;;;;;5038325;28;46349;-68
2023/04/28 04:20:54;;;;;;;5.70;3.10;;;10.90;50.70;;;;;;5037689;28;46440;-68
2023/04/28 04:23:20;;;;;;;4.47;3.07;;;10.90;50.50;;;;;;5040398;28;46651;-68
2023/04/28 04:25:46;;;;;;;5.77;3.00;;;11.00;50.50;;;;;;5040505;28;46540;-68
2023/04/28 04:28:12;;;;;;;4.50;3.00;;;10.90;50.60;;;;;;5039012;28;46483;-69
2023/04/28 04:30:38;;;;;;;3.77;2.70;;;10.90;50.80;;;;;;5037509;28;46422;-68
2023/04/28 04:33:03;;;;;;;4.63;3.27;;;11.00;50.80;;;;;;5039683;28;46590;-68
2023/04/28 04:35:29;;;;;;;4.43;3.60;;;11.00;50.60;;;;;;5038177;28;46420;-68
2023/04/28 04:37:55;;;;;;;4.97;3.30;;;11.00;50.30;;;;;;5036001;28;46570;-68
2023/04/28 04:40:21;;;;;;;4.97;2.87;;;11.10;50.30;;;;;;5038752;28;46444;-68
2023/04/28 04:42:46;;;;;;;5.10;2.80;;;11.00;50.40;;;;;;5040071;28;46444;-68
2023/04/28 04:45:12;;;;;;;3.50;2.50;;;11.10;50.40;;;;;;5039519;28;46971;-67
2023/04/28 04:47:38;;;;;;;8.03;2.90;;;11.10;50.40;;;;;;5044115;28;46392;-68
2023/04/28 04:50:04;;;;;;;4.60;2.70;;;11.10;50.30;;;;;;5037121;28;46420;-68
2023/04/28 04:52:29;;;;;;;4.43;2.67;;;11.20;50.40;;;;;;5037492;28;46228;-68
2023/04/28 04:54:55;;;;;;;4.90;2.30;;;11.20;50.30;;;;;;5037972;28;46578;-69
2023/04/28 04:57:21;;;;;;;5.53;2.97;;;11.20;50.50;;;;;;5038880;28;46615;-68
2023/04/28 04:59:47;;;;;;;4.80;2.67;;;11.20;50.90;;;;;;5041042;28;45873;-68
2023/04/28 05:02:12;;;;;;;3.43;2.57;;;11.20;50.90;;;;;;5042520;28;46406;-67
2023/04/28 05:04:38;;;;;;;4.03;2.87;;;11.20;51.00;;;;;;5040532;28;46668;-68
2023/04/28 05:07:04;;;;;;;6.23;2.77;;;11.20;51.20;;;;;;5036405;28;46351;-68
2023/04/28 05:09:30;;;;;;;4.93;2.87;;;11.20;51.50;;;;;;5040033;28;46403;-68
2023/04/28 05:11:56;;;;;;;5.30;2.90;;;11.20;51.50;;;;;;5041395;28;46346;-68
2023/04/28 05:14:22;;;;;;;3.47;2.80;;;11.20;51.50;;;;;;5038563;28;46226;-68
2023/04/28 05:16:48;;;;;;;6.90;2.70;;;11.20;51.40;;;;;;5039175;28;46361;-68
2023/04/28 05:19:14;;;;;;;7.57;3.57;;;11.20;51.50;;;;;;5038273;28;46433;-68
2023/04/28 05:21:39;;;;;;;4.50;3.30;;;11.20;51.70;;;;;;5038111;28;45960;-67
2023/04/28 05:24:05;;;;;;;6.97;3.93;;;11.20;51.70;;;;;;5042010;28;46400;-68
2023/04/28 05:26:31;;;;;;;6.90;3.93;;;11.30;51.50;;;;;;5041105;28;46270;-68
2023/04/28 05:28:56;;;;;;;6.73;3.87;;;11.40;51.40;;;;;;5040508;28;46411;-68
2023/04/28 05:31:22;;;;;;;6.80;3.73;;;11.50;51.20;;;;;;5041276;28;46483;-68
2023/04/28 05:33:47;;;;;;;7.37;3.50;;;11.50;51.00;;;;;;5041607;28;46983;-68
2023/04/28 05:36:15;;;;;;;5.37;3.30;;;11.50;50.90;;;;;;5042719;28;46504;-68
2023/04/28 05:38:42;;;;;;;7.47;3.60;;;11.60;50.90;;;;;;5039530;28;46440;-68
2023/04/28 05:41:07;;;;;;;5.93;3.63;;;11.70;50.80;;;;;;5041831;28;45793;-68
2023/04/28 05:43:33;;;;;;;5.70;3.20;;;11.70;50.70;;;;;;5041559;28;46350;-68
2023/04/28 05:45:59;;;;;;;4.63;2.90;;;11.80;50.90;;;;;;5039778;28;46297;-67
2023/04/28 05:48:25;;;;;;;4.80;2.73;;;11.80;50.80;;;;;;5039415;28;46945;-68
2023/04/28 05:50:51;;;;;;;10.37;2.97;;;11.90;50.80;;;;;;5038514;28;46600;-68
2023/04/28 05:53:16;;;;;;;6.90;3.30;;;12.00;50.50;;;;;;5041173;28;46598;-68
2023/04/28 05:55:42;;;;;;;4.27;2.53;;;12.10;50.70;;;;;;5039130;28;46306;-68
2023/04/28 05:58:08;;;;;;;9.10;3.37;;;12.20;50.50;;;;;;5038798;28;46671;-68
2023/04/28 06:00:33;;;;;;;5.00;2.93;;;12.30;50.40;;;;;;5039441;28;46483;-68
2023/04/28 06:02:59;;;;;;;5.73;2.93;;;12.40;50.40;;;;;;5040001;28;47133;-68
2023/04/28 06:05:25;;;;;;;5.50;3.00;;;12.50;50.20;;;;;;5040515;28;46428;-69
2023/04/28 06:07:51;;;;;;;3.53;2.63;;;12.60;50.10;;;;;;5040038;28;45834;-68
2023/04/28 06:10:17;;;;;;;4.23;2.70;;;12.70;50.40;;;;;;5039815;28;45887;-69
2023/04/28 06:12:43;;;;;;;4.70;3.00;;;12.80;50.20;;;;;;5037747;28;47335;-70
2023/04/28 06:15:09;;;;;;;4.73;3.00;;;12.90;50.00;;;;;;5041661;28;46367;-69
2023/04/28 06:17:34;;;;;;;4.30;3.10;;;13.10;50.00;;;;;;5037653;28;45810;-68
2023/04/28 06:20:00;;;;;;;5.60;3.47;;;13.20;49.90;;;;;;5036806;28;46636;-72
2023/04/28 06:22:26;;;;;;;4.50;2.30;;;13.20;50.30;;;;;;5037630;28;47073;-71
2023/04/28 06:24:51;;;;;;;5.77;2.90;;;13.20;50.10;;;;;;5037485;28;46170;-73
2023/04/28 06:27:17;;;;;;;5.90;4.33;;;13.30;50.20;;;;;;5037022;28;46417;-72
2023/04/28 06:29:44;;;;;;;11.00;6.67;;;13.40;50.00;;;;;;5039995;28;46440;-72
2023/04/28 06:32:09;;;;;;;6.50;3.90;;;13.50;49.70;;;;;;5040288;28;46707;-72
2023/04/28 06:34:36;;;;;;;11.93;6.17;;;13.70;49.60;;;;;;5038326;28;46719;-74
2023/04/28 06:37:02;;;;;;;6.60;4.77;;;13.70;49.50;;;;;;5037554;28;46330;-70
2023/04/28 06:39:28;;;;;;;4.80;3.03;;;13.90;49.40;;;;;;5039857;28;46320;-73
2023/04/28 06:41:53;;;;;;;4.00;2.30;;;14.00;49.20;;;;;;5038191;28;46452;-69
2023/04/28 06:44:19;;;;;;;4.23;1.93;;;14.10;49.30;;;;;;5040084;28;46411;-73
2023/04/28 06:46:45;;;;;;;2.87;1.57;;;14.10;49.30;;;;;;5038900;28;46211;-72
2023/04/28 06:49:10;;;;;;;2.50;1.40;;;14.30;49.10;;;;;;5038264;28;46585;-73
2023/04/28 06:51:36;;;;;;;2.60;1.50;;;14.30;49.10;;;;;;5036025;28;46476;-74
2023/04/28 06:54:02;;;;;;;2.30;1.30;;;14.30;49.40;;;;;;5038065;28;46380;-73
2023/04/28 06:56:28;;;;;;;2.20;1.13;;;14.20;49.50;;;;;;5040062;28;46461;-73
2023/04/28 06:58:55;;;;;;;3.40;1.10;;;14.20;49.70;;;;;;5038104;28;46531;-73
2023/04/28 07:01:21;;;;;;;2.87;1.20;;;14.30;49.60;;;;;;5037781;28;46415;-70
2023/04/28 07:03:47;;;;;;;3.27;1.37;;;14.20;49.80;;;;;;5038547;28;46380;-72
2023/04/28 07:06:12;;;;;;;3.50;1.53;;;14.20;49.80;;;;;;5037620;28;46258;-71
2023/04/28 07:08:38;;;;;;;9.83;2.57;;;14.10;50.00;;;;;;5035820;28;46493;-72
2023/04/28 07:11:05;;;;;;;2.83;1.57;;;14.00;50.20;;;;;;5036911;28;46730;-74
2023/04/28 07:13:31;;;;;;;2.90;1.60;;;13.90;50.10;;;;;;5038250;28;46486;-73
2023/04/28 07:15:57;;;;;;;2.60;1.50;;;13.90;50.20;;;;;;5038432;28;46588;-73
2023/04/28 07:18:23;;;;;;;2.47;1.40;;;13.90;50.00;;;;;;5040445;28;46539;-73
2023/04/28 07:20:48;;;;;;;5.10;1.20;;;13.80;50.00;;;;;;5037308;28;46659;-71
2023/04/28 07:23:14;;;;;;;5.40;1.37;;;13.80;50.10;;;;;;5036729;28;46448;-74
2023/04/28 07:25:40;;;;;;;3.17;1.40;;;13.70;50.20;;;;;;5038570;28;46354;-71
2023/04/28 07:28:06;;;;;;;4.60;1.30;;;13.60;50.40;;;;;;5033830;28;46561;-75
2023/04/28 07:30:32;;;;;;;2.13;1.20;;;13.60;50.40;;;;;;5036943;28;46585;-74
2023/04/28 07:32:58;;;;;;;5.20;2.00;;;13.50;50.20;;;;;;5036381;28;46465;-73
2023/04/28 07:35:24;;;;;;;4.80;2.63;;;13.50;50.40;;;;;;5038614;28;46373;-73
2023/04/28 07:37:50;;;;;;;3.47;1.93;;;13.40;50.70;;;;;;5037652;28;46381;-73
2023/04/28 07:40:17;;;;;;;2.10;1.30;;;13.40;51.00;;;;;;5039335;28;46028;-72
2023/04/28 07:42:42;;;;;;;3.30;1.50;;;13.40;51.20;;;;;;5035475;28;46451;-73
2023/04/28 07:45:08;;;;;;;2.20;1.20;;;13.50;51.20;;;;;;5038180;28;46593;-72
2023/04/28 07:47:35;;;;;;;2.97;1.80;;;13.50;51.20;;;;;;5038937;28;46668;-74
2023/04/28 07:50:05;;;;;;;7.90;4.80;;;13.50;51.20;;;;;;5036558;28;47199;-72
2023/04/28 07:52:32;;;;;;;7.73;4.70;;;13.50;51.30;;;;;;5038659;28;45833;-73
2023/04/28 07:54:58;;;;;;;4.40;2.33;;;13.60;51.10;;;;;;5038584;28;46448;-70
2023/04/28 07:57:24;;;;;;;8.97;3.07;;;13.70;50.70;;;;;;5037783;28;45905;-71
2023/04/28 07:59:50;;;;;;;5.30;2.30;;;13.70;50.80;;;;;;5033541;28;46459;-71
2023/04/28 08:02:16;;;;;;;3.20;1.80;;;13.80;50.70;;;;;;5037579;28;46409;-70
2023/04/28 08:04:41;;;;;;;6.80;3.47;;;13.80;50.60;;;;;;5038315;28;46396;-70
2023/04/28 08:07:08;;;;;;;2.80;1.80;;;13.90;50.60;;;;;;5039378;28;46320;-73
2023/04/28 08:09:34;;;;;;;4.57;2.23;;;13.80;50.80;;;;;;5037119;28;47124;-72
2023/04/28 08:12:00;;;;;;;7.03;2.07;;;13.70;51.00;;;;;;5035196;28;46404;-71
2023/04/28 08:14:26;;;;;;;3.70;1.80;;;13.90;50.70;;;;;;5038152;28;46357;-71
2023/04/28 08:16:52;;;;;;;3.50;1.90;;;14.00;50.50;;;;;;5035694;28;45903;-71
2023/04/28 08:19:18;;;;;;;2.60;1.40;;;14.00;50.40;;;;;;5038203;28;46443;-71
2023/04/28 08:21:43;;;;;;;3.50;1.70;;;14.10;50.50;;;;;;5037436;28;46334;-71
2023/04/28 08:24:09;;;;;;;3.40;1.60;;;14.10;50.40;;;;;;5036920;28;46621;-70
2023/04/28 08:26:36;;;;;;;3.40;2.10;;;14.30;50.30;;;;;;5038746;28;46416;-70
2023/04/28 08:29:02;;;;;;;3.10;1.83;;;14.40;50.00;;;;;;5036859;28;46633;-70
2023/04/28 08:31:28;;;;;;;2.20;1.30;;;14.40;49.90;;;;;;5038334;28;46305;-72
2023/04/28 08:33:54;;;;;;;4.20;1.50;;;14.50;49.90;;;;;;5037855;28;46580;-71
2023/04/28 08:36:20;;;;;;;3.43;1.70;;;14.50;49.90;;;;;;5040634;28;46655;-72
2023/04/28 08:38:46;;;;;;;3.47;1.70;;;14.50;49.80;;;;;;5042034;28;46594;-73
2023/04/28 08:41:15;;;;;;;2.50;1.20;;;14.50;49.90;;;;;;5040966;28;46448;-71
2023/04/28 08:43:42;;;;;;;2.73;1.10;;;14.40;50.20;;;;;;5037591;28;46202;-74
2023/04/28 08:46:08;;;;;;;3.20;1.33;;;14.30;50.20;;;;;;5041816;28;46846;-72
2023/04/28 08:48:40;;;;;;;2.20;1.10;;;14.30;50.20;;;;;;5037880;28;46940;-72
2023/04/28 08:51:06;;;;;;;2.53;1.20;;;14.40;50.00;;;;;;5039893;28;46459;-72
2023/04/28 08:53:37;;;;;;;2.23;1.20;;;14.50;50.00;;;;;;5040163;28;46447;-72
2023/04/28 08:56:05;;;;;;;3.63;1.30;;;14.40;49.90;;;;;;5039667;28;46471;-73
2023/04/28 08:58:34;;;;;;;3.07;1.27;;;14.50;50.00;;;;;;5039360;28;47079;-71
2023/04/28 09:01:02;;;;;;;4.23;1.47;;;14.40;49.90;;;;;;5038840;28;46404;-70
2023/04/28 09:03:27;;;;;;;2.87;1.30;;;14.40;50.20;;;;;;5039977;28;46713;-71
2023/04/28 09:05:53;;;;;;;5.00;1.53;;;14.30;50.30;;;;;;5038706;28;46940;-70
2023/04/28 09:08:18;;;;;;;3.00;1.40;;;14.30;50.60;;;;;;5041706;28;46393;-70
2023/04/28 09:10:44;;;;;;;3.10;1.70;;;14.20;50.90;;;;;;5040133;28;46521;-70
2023/04/28 09:13:24;;;;;;;5.73;3.07;;;14.30;51.00;;;;;;5038912;28;45935;-70
2023/04/28 09:15:50;;;;;;;6.13;5.37;;;14.30;51.00;;;;;;5040948;28;46574;-70
2023/04/28 09:18:16;;;;;;;3.10;2.43;;;14.30;51.00;;;;;;5039603;28;46613;-71
2023/04/28 09:20:43;;;;;;;4.60;1.60;;;14.50;51.00;;;;;;5036754;28;46554;-70
2023/04/28 09:23:13;;;;;;;3.17;2.40;;;14.40;51.10;;;;;;5036555;28;46493;-73
2023/04/28 09:25:39;;;;;;;6.53;2.20;;;14.20;51.60;;;;;;5039287;28;46548;-72
2023/04/28 09:28:22;;;;;;;4.37;2.10;;;14.10;52.20;;;;;;5036940;28;46365;-72
2023/04/28 09:30:48;;;;;;;6.00;1.40;;;14.10;52.70;;;;;;5038541;28;46407;-71
2023/04/28 09:33:14;;;;;;;3.70;1.77;;;14.10;52.70;;;;;;5039247;28;45776;-72
2023/04/28 09:35:42;;;;;;;2.93;1.60;;;14.10;53.30;;;;;;5039935;28;46666;-73
2023/04/28 09:38:08;;;;;;;2.73;1.33;;;14.00;53.50;;;;;;5038589;28;46394;-71
2023/04/28 09:40:48;;;;;;;4.03;1.60;;;13.90;54.00;;;;;;5038573;28;45814;-71
2023/04/28 09:43:28;;;;;;;3.23;1.90;;;14.00;54.60;;;;;;5039537;28;46363;-72
2023/04/28 09:45:55;;;;;;;2.47;1.27;;;14.00;54.40;;;;;;5037392;28;46439;-72
2023/04/28 09:48:27;;;;;;;5.27;1.60;;;14.00;54.80;;;;;;5040364;28;47107;-72
2023/04/28 09:50:58;;;;;;;3.20;1.63;;;14.00;55.30;;;;;;5040416;28;46319;-73
2023/04/28 09:53:24;;;;;;;2.03;1.30;;;13.90;55.20;;;;;;5037906;28;46376;-72
2023/04/28 09:55:52;;;;;;;3.67;1.80;;;13.80;55.10;;;;;;5040458;28;45980;-70
2023/04/28 09:58:22;;;;;;;2.83;1.60;;;13.90;55.70;;;;;;5035843;28;47183;-71
2023/04/28 10:00:55;;;;;;;3.17;1.63;;;13.90;55.70;;;;;;5036774;28;45890;-72
2023/04/28 10:03:23;;;;;;;5.00;1.40;;;14.00;55.90;;;;;;5040041;28;46400;-71
2023/04/28 10:05:51;;;;;;;2.50;1.30;;;14.00;56.00;;;;;;5039204;28;46440;-72
2023/04/28 10:08:21;;;;;;;2.67;1.20;;;13.90;56.70;;;;;;5036851;28;47204;-72
2023/04/28 10:10:53;;;;;;;6.20;3.43;;;13.90;57.40;;;;;;5038224;28;46486;-69
2023/04/28 10:13:21;;;;;;;10.33;6.47;;;14.10;57.00;;;;;;5036934;28;46658;-71
2023/04/28 10:15:47;;;;;;;7.33;1.93;;;14.20;56.30;;;;;;5037996;28;46666;-72
2023/04/28 10:18:14;;;;;;;3.00;2.10;;;14.20;56.60;;;;;;5037844;28;47184;-72
2023/04/28 10:20:43;;;;;;;3.30;1.97;;;14.20;56.60;;;;;;5038505;28;46602;-72
2023/04/28 10:23:24;;;;;;;6.23;2.17;;;14.40;56.70;;;;;;5037049;28;46782;-69
2023/04/28 10:25:56;;;;;;;4.50;1.90;;;14.50;56.60;;;;;;5037376;28;46434;-71
2023/04/28 10:28:22;;;;;;;7.23;1.73;;;14.60;56.30;;;;;;5039426;28;46521;-72
2023/04/28 10:31:10;;;;;;;2.50;1.40;;;14.70;56.10;;;;;;5037631;28;46471;-71
2023/04/28 10:33:36;;;;;;;2.87;1.87;;;14.80;56.10;;;;;;5039593;28;46254;-70
2023/04/28 10:36:03;;;;;;;3.50;1.70;;;14.80;56.10;;;;;;5036486;28;46452;-71
2023/04/28 10:38:28;;;;;;;6.97;1.80;;;14.90;56.10;;;;;;5038758;28;47008;-70
2023/04/28 10:40:54;;;;;;;4.20;3.17;;;14.70;56.10;;;;;;5038836;28;46437;-71
2023/04/28 10:43:30;;;;;;;4.93;3.87;;;14.80;56.80;;;;;;5037820;28;46151;-73
2023/04/28 10:46:00;;;;;;;5.20;3.03;;;14.70;56.90;;;;;;5036447;28;46516;-70
2023/04/28 10:48:25;;;;;;;3.53;1.47;;;14.60;57.30;;;;;;5035434;28;46370;-70
2023/04/28 10:51:03;;;;;;;2.10;1.37;;;14.60;57.70;;;;;;5035927;28;46331;-70
2023/04/28 10:53:44;;;;;;;2.43;1.37;;;14.60;57.80;;;;;;5038503;28;45889;-71
2023/04/28 10:56:17;;;;;;;2.07;1.33;;;14.70;57.70;;;;;;5037883;28;46670;-74
2023/04/28 10:58:50;;;;;;;2.40;1.33;;;14.70;57.50;;;;;;5038650;28;46682;-71
2023/04/28 11:01:24;;;;;;;2.50;1.30;;;14.70;57.90;;;;;;5037411;28;46865;-72
2023/04/28 11:04:06;;;;;;;4.23;1.73;;;14.60;58.20;;;;;;5036777;28;46442;-72
2023/04/28 11:06:34;;;;;;;3.40;1.23;;;14.70;58.20;;;;;;5038236;28;46429;-72
2023/04/28 11:09:01;;;;;;;6.20;1.90;;;15.00;57.50;;;;;;5034692;28;46348;-71
2023/04/28 11:11:35;;;;;;;3.10;1.80;;;15.30;56.50;;;;;;5037783;28;46863;-72
2023/04/28 11:14:19;;;;;;;4.23;2.00;;;15.60;56.80;;;;;;5038338;28;46342;-71
2023/04/28 11:16:49;;;;;;;5.13;1.93;;;16.10;55.40;;;;;;5037140;28;46493;-69
2023/04/28 11:19:18;;;;;;;2.37;1.57;;;16.70;53.70;;;;;;5036425;28;46428;-69
2023/04/28 11:21:45;;;;;;;4.07;1.73;;;17.10;52.40;;;;;;5034509;28;46483;-68
2023/04/28 11:24:11;;;;;;;3.27;1.73;;;17.50;51.70;;;;;;5036062;28;46346;-68
2023/04/28 11:26:38;;;;;;;2.50;1.50;;;17.60;51.40;;;;;;5036061;28;46417;-67
2023/04/28 11:29:04;;;;;;;3.77;1.77;;;17.60;51.20;;;;;;5035745;28;46399;-68
2023/04/28 11:31:30;;;;;;;2.40;1.50;;;17.70;51.10;;;;;;5034311;28;46549;-68
2023/04/28 11:34:02;;;;;;;2.57;1.43;;;17.70;51.30;;;;;;5038708;28;45878;-68
2023/04/28 11:36:34;;;;;;;4.30;1.53;;;18.00;50.70;;;;;;5038863;28;46454;-68
2023/04/28 11:39:00;;;;;;;6.53;1.57;;;18.10;50.40;;;;;;5038485;28;46465;-67
2023/04/28 11:41:26;;;;;;;3.60;1.43;;;18.10;50.40;;;;;;5038996;28;45878;-68
2023/04/28 11:43:52;;;;;;;2.40;1.40;;;18.20;50.10;;;;;;5038377;28;46436;-68
2023/04/28 11:46:23;;;;;;;3.63;1.40;;;18.00;50.40;;;;;;5039472;28;46403;-68
2023/04/28 11:49:03;;;;;;;2.53;1.30;;;17.70;52.40;;;;;;5036040;28;46511;-68
2023/04/28 11:51:31;;;;;;;3.33;1.33;;;17.50;51.80;;;;;;5038324;28;46543;-67
2023/04/28 11:53:57;;;;;;;2.40;1.33;;;17.50;52.10;;;;;;5034852;28;46345;-67
2023/04/28 11:56:22;;;;;;;2.60;1.37;;;17.50;52.20;;;;;;5038008;28;46369;-67
2023/04/28 11:59:04;;;;;;;2.77;1.53;;;17.40;51.90;;;;;;5037104;28;47086;-67
2023/04/28 12:01:31;;;;;;;2.50;1.50;;;17.20;52.30;;;;;;5038284;28;46325;-67
2023/04/28 12:03:56;;;;;;;2.30;1.20;;;17.00;52.80;;;;;;5034938;28;46373;-67
2023/04/28 12:06:23;;;;;;;2.30;1.30;;;16.80;53.20;;;;;;5037966;28;46468;-68
2023/04/28 12:08:50;;;;;;;2.77;1.43;;;16.50;54.10;;;;;;5037089;28;48028;-67
2023/04/28 12:11:16;;;;;;;2.20;1.30;;;16.40;54.30;;;;;;5038800;28;46440;-67
2023/04/28 12:13:42;;;;;;;2.30;1.37;;;16.50;53.70;;;;;;5036265;28;46416;-67
2023/04/28 12:16:08;;;;;;;2.67;1.40;;;16.80;53.20;;;;;;5037297;28;46552;-67
2023/04/28 12:18:38;;;;;;;2.50;1.40;;;16.90;52.60;;;;;;5034714;28;46610;-68
2023/04/28 12:21:04;;;;;;;2.50;1.50;;;17.20;51.60;;;;;;5036986;28;46738;-68
2023/04/28 12:23:34;;;;;;;2.20;1.20;;;17.60;50.50;;;;;;5036877;28;46985;-68
2023/04/28 12:26:01;;;;;;;1.90;1.10;;;17.90;49.70;;;;;;5038183;28;46510;-68
2023/04/28 12:28:40;;;;;;;2.80;1.37;;;18.00;49.00;;;;;;5038742;28;47006;-68
2023/04/28 12:31:07;;;;;;;2.97;1.30;;;18.10;48.80;;;;;;5038237;28;46550;-68
2023/04/28 12:33:38;;;;;;;3.33;1.40;;;18.20;48.30;;;;;;5038918;28;46334;-68
2023/04/28 12:36:07;;;;;;;3.60;1.20;;;18.00;48.30;;;;;;5038838;28;46422;-68
2023/04/28 12:38:32;;;;;;;3.43;1.87;;;17.80;49.10;;;;;;5037360;28;46370;-68
2023/04/28 12:40:59;;;;;;;2.10;1.10;;;17.50;49.60;;;;;;5036832;28;46459;-68
2023/04/28 12:43:26;;;;;;;2.80;1.30;;;17.50;49.80;;;;;;5035546;28;46421;-68
2023/04/28 12:45:53;;;;;;;2.10;1.20;;;17.60;49.30;;;;;;5037458;28;46539;-68